createdAt,value
2022-08-17T00:03:51.000Z,2.80
2022-08-17T00:13:51.000Z,2.30
2022-08-17T00:23:51.000Z,2.40
2022-08-17T00:33:51.000Z,2.10
2022-08-17T00:53:51.000Z,2.20
2022-08-17T01:03:50.000Z,2.40
2022-08-17T01:13:50.000Z,2.20
2022-08-17T01:23:50.000Z,2.00
2022-08-17T01:33:50.000Z,2.90
2022-08-17T01:43:50.000Z,3.60
2022-08-17T01:53:50.000Z,2.00
2022-08-17T02:03:50.000Z,1.70
2022-08-17T02:23:49.000Z,2.20
2022-08-17T02:23:49.000Z,2.20
2022-08-17T02:33:49.000Z,3.30
2022-08-17T02:43:49.000Z,3.10
2022-08-17T02:43:49.000Z,3.10
2022-08-17T02:53:49.000Z,2.10
2022-08-17T03:03:49.000Z,1.50
2022-08-17T03:13:49.000Z,2.10
2022-08-17T03:23:48.000Z,1.50
2022-08-17T03:33:48.000Z,1.60
2022-08-17T03:53:48.000Z,1.90
2022-08-17T04:03:48.000Z,1.50
2022-08-17T04:13:48.000Z,2.40
2022-08-17T04:23:48.000Z,2.40
2022-08-17T05:04:21.000Z,2.20
2022-08-17T05:04:21.000Z,2.60
2022-08-17T05:14:21.000Z,3.10
2022-08-17T05:14:21.000Z,3.10
2022-08-17T05:24:21.000Z,2.20
2022-08-17T05:44:38.000Z,2.40
2022-08-17T05:44:38.000Z,2.00
2022-08-17T05:54:38.000Z,2.50
2022-08-17T06:04:37.000Z,2.20
2022-08-17T06:14:37.000Z,2.40
2022-08-17T06:24:37.000Z,2.50
2022-08-17T06:34:37.000Z,1.80
2022-08-17T06:34:37.000Z,1.80
2022-08-17T06:34:37.000Z,1.80
2022-08-17T06:44:37.000Z,2.10
2022-08-17T06:54:37.000Z,2.40
2022-08-17T07:14:36.000Z,2.20
2022-08-17T07:24:36.000Z,1.90
2022-08-17T07:34:36.000Z,1.50
2022-08-17T07:44:36.000Z,1.60
2022-08-17T07:54:36.000Z,1.80
2022-08-17T08:04:36.000Z,1.80
2022-08-17T08:14:36.000Z,2.20
2022-08-17T08:24:35.000Z,1.20
2022-08-17T08:24:35.000Z,1.20
2022-08-17T08:24:35.000Z,1.20
2022-08-17T08:44:35.000Z,1.60
2022-08-17T08:54:35.000Z,1.40
2022-08-17T08:54:35.000Z,1.40
2022-08-17T09:04:35.000Z,1.00
2022-08-17T09:14:35.000Z,1.40
2022-08-17T09:24:35.000Z,1.30
2022-08-17T09:34:35.000Z,1.50
2022-08-17T09:44:34.000Z,2.10
2022-08-17T09:54:34.000Z,1.10
2022-08-17T10:14:34.000Z,1.40
2022-08-17T10:14:34.000Z,1.40
2022-08-17T10:14:34.000Z,1.40
2022-08-17T10:24:34.000Z,1.70
2022-08-17T10:34:34.000Z,1.40
2022-08-17T10:44:34.000Z,1.70
2022-08-17T10:54:33.000Z,1.70
2022-08-17T11:04:33.000Z,1.40
2022-08-17T11:14:33.000Z,1.60
2022-08-17T11:24:33.000Z,1.20
2022-08-17T11:44:33.000Z,1.00
2022-08-17T11:54:33.000Z,1.90
2022-08-17T12:04:32.000Z,2.00
2022-08-17T12:04:32.000Z,2.00
2022-08-17T12:14:32.000Z,1.20
2022-08-17T12:24:32.000Z,1.60
2022-08-17T12:34:32.000Z,1.30
2022-08-17T12:34:32.000Z,1.30
2022-08-17T12:44:32.000Z,1.40
2022-08-17T12:54:32.000Z,1.10
2022-08-17T13:14:32.000Z,0.90
2022-08-17T13:24:31.000Z,0.90
2022-08-17T13:24:31.000Z,0.90
2022-08-17T13:34:31.000Z,1.20
2022-08-17T13:44:31.000Z,1.30
2022-08-17T13:54:31.000Z,0.90
2022-08-17T14:04:31.000Z,1.50
2022-08-17T14:14:31.000Z,0.60
2022-08-17T14:14:31.000Z,0.60
2022-08-17T14:24:31.000Z,1.10
2022-08-17T14:44:30.000Z,1.80
2022-08-17T14:44:30.000Z,1.80
2022-08-17T14:54:30.000Z,1.00
2022-08-17T14:54:30.000Z,1.00
2022-08-17T15:04:30.000Z,0.60
2022-08-17T15:14:30.000Z,0.70
2022-08-17T15:24:30.000Z,1.00
2022-08-17T15:34:30.000Z,0.70
2022-08-17T15:44:30.000Z,0.70
2022-08-17T15:54:29.000Z,1.20
2022-08-17T16:14:29.000Z,1.20
2022-08-17T16:24:29.000Z,0.60
2022-08-17T16:34:29.000Z,0.90
2022-08-17T16:44:29.000Z,0.90
2022-08-17T16:54:29.000Z,0.90
2022-08-17T17:04:29.000Z,1.00
2022-08-17T17:14:28.000Z,0.80
2022-08-17T17:24:28.000Z,0.80
2022-08-17T17:44:28.000Z,1.10
2022-08-17T17:54:28.000Z,1.20
2022-08-17T18:04:28.000Z,1.40
2022-08-17T18:14:28.000Z,1.00
2022-08-17T18:24:27.000Z,1.50
2022-08-17T18:24:27.000Z,1.50
2022-08-17T18:34:27.000Z,1.90
2022-08-17T18:44:27.000Z,1.40
2022-08-17T18:54:27.000Z,1.80
2022-08-17T19:14:27.000Z,1.70
2022-08-17T19:14:27.000Z,1.70
2022-08-17T19:24:27.000Z,1.00
2022-08-17T19:34:26.000Z,0.80
2022-08-17T19:44:26.000Z,1.50
2022-08-17T19:54:26.000Z,1.80
2022-08-17T20:04:26.000Z,0.90
2022-08-17T20:14:26.000Z,1.20
2022-08-17T20:24:26.000Z,1.30
2022-08-17T20:44:26.000Z,1.00
2022-08-17T20:54:25.000Z,1.50
2022-08-17T21:04:25.000Z,1.90
2022-08-17T21:14:25.000Z,2.40
2022-08-17T21:24:25.000Z,1.80
2022-08-17T21:34:25.000Z,1.40
2022-08-17T21:44:25.000Z,2.20
2022-08-17T21:54:25.000Z,1.70
2022-08-17T21:54:25.000Z,1.70
2022-08-17T22:14:24.000Z,2.60
2022-08-17T22:24:24.000Z,1.40
2022-08-17T22:34:24.000Z,2.20
2022-08-17T22:44:24.000Z,2.20
2022-08-17T22:54:24.000Z,2.00
2022-08-17T23:04:24.000Z,1.40
2022-08-17T23:14:23.000Z,1.90
2022-08-17T23:24:23.000Z,2.20
2022-08-17T23:44:23.000Z,1.90
2022-08-17T23:54:23.000Z,1.90
2022-08-17T23:54:23.000Z,1.90
